createdAt,value
2022-09-10T00:00:07.795Z,4.72
2022-09-10T00:05:12.689Z,4.05
2022-09-10T00:10:15.497Z,4.10
2022-09-10T00:15:19.060Z,3.80
2022-09-10T00:20:21.900Z,4.43
2022-09-10T00:25:24.613Z,4.28
2022-09-10T00:30:28.080Z,4.38
2022-09-10T00:35:36.366Z,4.40
2022-09-10T00:40:41.155Z,5.05
2022-09-10T00:45:46.716Z,3.60
2022-09-10T00:50:51.985Z,3.80
2022-09-10T00:55:59.994Z,4.43
2022-09-10T01:01:03.390Z,3.53
2022-09-10T01:06:06.642Z,4.57
2022-09-10T01:11:58.757Z,5.72
2022-09-10T01:17:35.165Z,5.20
2022-09-10T01:23:25.480Z,3.60
2022-09-10T01:28:54.718Z,4.40
2022-09-10T01:34:05.809Z,3.28
2022-09-10T01:39:08.807Z,3.00
2022-09-10T01:44:41.717Z,3.97
2022-09-10T01:50:09.183Z,2.33
2022-09-10T01:55:22.636Z,2.40
2022-09-10T02:00:26.719Z,2.83
2022-09-10T02:05:35.231Z,1.50
2022-09-10T02:11:06.517Z,1.67
2022-09-10T02:21:17.317Z,1.67
2022-09-10T02:26:20.287Z,1.58
2022-09-10T02:31:23.999Z,3.30
2022-09-10T02:36:26.837Z,2.55
2022-09-10T02:41:34.036Z,1.92
2022-09-10T02:46:36.686Z,1.50
2022-09-10T02:51:41.791Z,2.10
2022-09-10T02:56:44.486Z,0.73
2022-09-10T03:01:48.410Z,1.73
2022-09-10T03:06:55.110Z,1.13
2022-09-10T03:11:59.732Z,1.80
2022-09-10T03:17:03.873Z,1.38
2022-09-10T03:22:06.760Z,0.68
2022-09-10T03:27:10.255Z,0.70
2022-09-10T03:32:12.975Z,1.60
2022-09-10T03:37:16.974Z,0.50
2022-09-10T03:42:19.816Z,0.55
2022-09-10T03:47:22.768Z,0.57
2022-09-10T03:52:26.591Z,0.38
2022-09-10T03:57:31.219Z,0.20
2022-09-10T04:02:33.922Z,0.40
2022-09-10T04:07:36.938Z,0.60
2022-09-10T04:12:39.823Z,0.30
2022-09-10T04:17:42.733Z,0.40
2022-09-10T04:22:46.741Z,0.70
2022-09-10T04:27:50.093Z,0.63
2022-09-10T04:32:53.077Z,0.30
2022-09-10T04:37:55.893Z,0.25
2022-09-10T04:42:59.254Z,0.30
2022-09-10T04:48:06.685Z,0.32
2022-09-10T04:53:10.118Z,0.30
2022-09-10T04:58:13.524Z,0.68
2022-09-10T05:03:16.322Z,0.40
2022-09-10T05:08:19.231Z,0.38
2022-09-10T05:13:22.329Z,0.30
2022-09-10T05:18:28.321Z,0.30
2022-09-10T05:23:31.789Z,0.35
2022-09-10T05:28:34.532Z,0.43
2022-09-10T05:33:37.329Z,0.70
2022-09-10T05:38:40.353Z,0.43
2022-09-10T05:43:44.348Z,1.10
2022-09-10T05:48:47.182Z,0.90
2022-09-10T05:53:50.213Z,3.42
2022-09-10T05:58:53.252Z,0.90
2022-09-10T06:03:56.263Z,0.93
2022-09-10T06:08:59.975Z,0.47
2022-09-10T06:14:02.788Z,0.55
2022-09-10T06:19:05.578Z,0.80
2022-09-10T06:24:08.630Z,0.80
2022-09-10T06:29:11.790Z,0.70
2022-09-10T06:34:15.367Z,1.48
2022-09-10T06:39:18.446Z,1.20
2022-09-10T06:44:22.532Z,0.95
2022-09-10T06:49:25.401Z,0.50
2022-09-10T06:54:28.178Z,0.30
2022-09-10T06:59:31.606Z,0.73
2022-09-10T07:04:34.364Z,0.50
2022-09-10T07:09:37.051Z,1.08
2022-09-10T07:14:39.747Z,0.68
2022-09-10T07:19:42.525Z,0.60
2022-09-10T07:24:46.081Z,0.73
2022-09-10T07:29:49.421Z,1.70
2022-09-10T07:34:52.406Z,2.00
2022-09-10T07:39:55.219Z,1.23
2022-09-10T07:44:58.178Z,2.90
2022-09-10T07:50:00.924Z,1.60
2022-09-10T07:55:04.742Z,2.00
2022-09-10T08:00:15.180Z,1.38
2022-09-10T08:05:18.164Z,1.58
2022-09-10T08:10:21.391Z,1.42
2022-09-10T08:15:24.276Z,1.15
2022-09-10T08:20:30.653Z,1.48
2022-09-10T08:25:34.726Z,0.57
2022-09-10T08:30:37.544Z,0.57
2022-09-10T08:35:40.258Z,0.73
2022-09-10T08:40:44.760Z,0.88
2022-09-10T08:45:52.012Z,0.95
2022-09-10T08:51:15.994Z,0.45
2022-09-10T08:56:23.792Z,0.68
2022-09-10T09:01:53.172Z,0.80
2022-09-10T09:07:03.765Z,0.57
2022-09-10T09:12:18.287Z,0.95
2022-09-10T09:17:55.861Z,1.00
2022-09-10T09:23:18.447Z,1.85
2022-09-10T09:29:01.278Z,1.00
2022-09-10T09:34:39.745Z,0.32
2022-09-10T09:40:13.618Z,0.40
2022-09-10T09:45:36.434Z,0.32
2022-09-10T09:50:42.851Z,0.75
2022-09-10T09:55:56.267Z,0.38
2022-09-10T10:01:09.139Z,0.28
2022-09-10T10:06:12.682Z,0.20
2022-09-10T10:11:20.693Z,0.75
2022-09-10T10:16:36.567Z,0.60
2022-09-10T10:21:39.767Z,1.20
2022-09-10T10:26:44.163Z,0.60
2022-09-10T10:31:53.638Z,0.30
2022-09-10T10:37:05.188Z,0.10
2022-09-10T10:42:35.589Z,0.10
2022-09-10T10:48:10.068Z,0.28
2022-09-10T10:53:31.347Z,0.10
2022-09-10T10:59:09.386Z,0.00
2022-09-10T11:04:29.387Z,0.03
2022-09-10T11:09:51.784Z,1.02
2022-09-10T11:15:24.503Z,0.80
2022-09-10T11:20:42.700Z,0.38
2022-09-10T11:26:03.047Z,0.77
2022-09-10T11:31:19.999Z,0.30
2022-09-10T11:36:31.759Z,0.40
2022-09-10T11:41:35.969Z,0.43
2022-09-10T11:46:46.345Z,1.10
2022-09-10T11:51:50.276Z,0.10
2022-09-10T11:57:08.505Z,0.10
2022-09-10T12:02:40.978Z,0.30
2022-09-10T12:07:49.774Z,0.52
2022-09-10T12:12:53.400Z,0.45
2022-09-10T12:18:18.758Z,0.43
2022-09-10T12:23:35.444Z,0.00
2022-09-10T12:28:53.027Z,0.38
2022-09-10T12:33:57.757Z,0.50
2022-09-10T12:39:27.328Z,0.20
2022-09-10T12:44:36.385Z,0.63
2022-09-10T12:49:55.118Z,0.40
2022-09-10T12:55:36.151Z,0.63
2022-09-10T13:00:54.426Z,1.00
2022-09-10T13:06:04.313Z,0.30
2022-09-10T13:11:19.292Z,0.50
2022-09-10T13:16:40.614Z,0.82
2022-09-10T13:21:43.339Z,0.85
2022-09-10T13:26:52.599Z,0.28
2022-09-10T13:32:20.432Z,0.30
2022-09-10T13:37:46.778Z,0.75
2022-09-10T13:43:04.831Z,1.58
2022-09-10T13:48:25.815Z,0.20
2022-09-10T13:53:30.169Z,0.25
2022-09-10T13:58:37.392Z,0.50
2022-09-10T14:03:45.387Z,0.85
2022-09-10T14:09:06.464Z,1.38
2022-09-10T14:14:18.557Z,0.20
2022-09-10T14:19:30.707Z,0.35
2022-09-10T14:24:50.584Z,1.85
2022-09-10T14:29:59.038Z,0.30
2022-09-10T14:35:44.560Z,0.00
2022-09-10T14:40:48.257Z,0.13
2022-09-10T14:45:51.832Z,0.50
2022-09-10T14:51:18.223Z,0.10
2022-09-10T14:56:38.038Z,0.40
2022-09-10T15:01:51.582Z,0.43
2022-09-10T15:07:00.110Z,0.35
2022-09-10T15:12:15.040Z,0.30
2022-09-10T15:17:18.765Z,1.05
2022-09-10T15:22:31.656Z,0.22
2022-09-10T15:27:34.337Z,0.57
2022-09-10T15:32:37.170Z,0.17
2022-09-10T15:37:40.638Z,0.77
2022-09-10T15:42:43.500Z,0.75
2022-09-10T15:47:46.234Z,0.30
2022-09-10T15:52:48.978Z,0.60
2022-09-10T15:57:53.104Z,0.30
2022-09-10T16:02:56.436Z,0.10
2022-09-10T16:07:59.143Z,0.10
2022-09-10T16:13:02.074Z,0.17
2022-09-10T16:18:05.131Z,1.00
2022-09-10T16:23:07.935Z,0.28
2022-09-10T16:28:10.708Z,0.65
2022-09-10T16:33:14.348Z,0.60
2022-09-10T16:38:17.197Z,0.30
2022-09-10T16:43:20.142Z,1.90
2022-09-10T16:48:22.952Z,0.40
2022-09-10T16:53:26.341Z,0.50
2022-09-10T16:58:33.977Z,0.30
2022-09-10T17:03:49.898Z,0.70
2022-09-10T17:08:57.923Z,1.75
2022-09-10T17:14:04.176Z,0.15
2022-09-10T17:19:11.964Z,0.20
2022-09-10T17:24:14.880Z,0.30
2022-09-10T17:29:20.631Z,0.03
2022-09-10T17:34:24.650Z,0.30
2022-09-10T17:39:29.341Z,0.60
2022-09-10T17:44:32.132Z,0.03
2022-09-10T17:49:34.881Z,0.60
2022-09-10T17:54:37.863Z,1.70
2022-09-10T17:59:40.890Z,0.30
2022-09-10T18:04:43.654Z,5.75
2022-09-10T18:09:47.612Z,0.88
2022-09-10T18:14:50.455Z,0.77
2022-09-10T18:19:54.091Z,0.52
2022-09-10T18:24:56.771Z,0.38
2022-09-10T18:30:00.414Z,0.88
2022-09-10T18:35:03.530Z,1.35
2022-09-10T18:40:08.040Z,0.98
2022-09-10T18:45:11.042Z,1.35
2022-09-10T18:50:14.157Z,0.73
2022-09-10T18:55:17.785Z,0.73
2022-09-10T19:00:20.539Z,1.42
2022-09-10T19:05:23.277Z,0.30
2022-09-10T19:10:25.999Z,1.38
2022-09-10T19:15:28.880Z,0.25
2022-09-10T19:20:31.704Z,1.45
2022-09-10T19:25:34.452Z,0.85
2022-09-10T19:30:40.185Z,0.65
2022-09-10T19:35:45.479Z,0.93
2022-09-10T19:40:48.420Z,0.85
2022-09-10T19:45:56.202Z,0.65
2022-09-10T19:51:00.318Z,0.65
2022-09-10T19:56:09.054Z,1.05
2022-09-10T20:01:15.852Z,0.85
2022-09-10T20:06:21.721Z,0.73
2022-09-10T20:11:32.382Z,0.40
2022-09-10T20:16:42.558Z,0.88
2022-09-10T20:21:47.827Z,1.27
2022-09-10T20:26:50.940Z,1.02
2022-09-10T20:31:53.910Z,0.30
2022-09-10T20:36:56.831Z,0.40
2022-09-10T20:42:00.526Z,0.88
2022-09-10T20:47:03.667Z,1.13
2022-09-10T20:52:07.155Z,0.98
2022-09-10T20:57:12.058Z,0.40
2022-09-10T21:02:14.886Z,1.48
2022-09-10T21:07:17.655Z,0.60
2022-09-10T21:12:20.488Z,0.88
2022-09-10T21:17:23.295Z,0.30
2022-09-10T21:22:26.081Z,0.75
2022-09-10T21:27:29.320Z,0.50
2022-09-10T21:32:32.119Z,0.25
2022-09-10T21:37:35.003Z,0.30
2022-09-10T21:42:37.811Z,0.98
2022-09-10T21:47:41.256Z,1.67
2022-09-10T21:52:43.964Z,1.00
2022-09-10T21:57:47.144Z,0.93
2022-09-10T22:02:51.186Z,1.77
2022-09-10T22:07:54.677Z,0.20
2022-09-10T22:12:57.632Z,0.65
2022-09-10T22:18:00.344Z,0.20
2022-09-10T22:23:04.419Z,0.90
2022-09-10T22:28:07.388Z,0.70
2022-09-10T22:33:11.010Z,0.32
2022-09-10T22:38:19.079Z,0.13
2022-09-10T22:43:22.358Z,0.47
2022-09-10T22:48:25.093Z,0.30
2022-09-10T22:53:27.849Z,0.22
2022-09-10T22:58:33.063Z,0.30
2022-09-10T23:03:36.695Z,0.93
2022-09-10T23:08:41.570Z,0.30
2022-09-10T23:13:47.029Z,0.50
2022-09-10T23:18:55.857Z,0.55
2022-09-10T23:24:03.417Z,0.40
2022-09-10T23:29:06.750Z,0.40
2022-09-10T23:34:16.684Z,0.85
2022-09-10T23:39:22.542Z,0.50
2022-09-10T23:44:26.256Z,0.57
2022-09-10T23:49:29.013Z,0.35
2022-09-10T23:54:31.881Z,0.28
2022-09-10T23:59:34.791Z,0.40
